sensor_id;sensor_type;location;lat;lon;timestamp;pressure;altitude;pressure_sealevel;temperature;humidity
8039;BME280;4062;49.844;8.120;2024-01-16T00:01:51;98639.13;;;13.03;55.29
8039;BME280;4062;49.844;8.120;2024-01-16T00:03:52;98643.59;;;13.03;55.16
8039;BME280;4062;49.844;8.120;2024-01-16T00:05:54;98655.06;;;13.03;55.11
8039;BME280;4062;49.844;8.120;2024-01-16T00:07:55;98649.75;;;13.03;55.10
8039;BME280;4062;49.844;8.120;2024-01-16T00:09:56;98649.75;;;13.03;55.17
8039;BME280;4062;49.844;8.120;2024-01-16T00:11:58;98646.25;;;13.03;55.05
8039;BME280;4062;49.844;8.120;2024-01-16T00:13:59;98654.22;;;13.03;55.18
8039;BME280;4062;49.844;8.120;2024-01-16T00:16:02;98652.41;;;13.03;55.09
8039;BME280;4062;49.844;8.120;2024-01-16T00:18:05;98655.06;;;13.03;55.03
8039;BME280;4062;49.844;8.120;2024-01-16T00:20:06;98659.44;;;13.04;55.09
8039;BME280;4062;49.844;8.120;2024-01-16T00:22:08;98667.38;;;13.04;55.07
8039;BME280;4062;49.844;8.120;2024-01-16T00:24:09;98675.25;;;13.06;55.25
8039;BME280;4062;49.844;8.120;2024-01-16T00:26:20;98674.41;;;13.05;54.99
8039;BME280;4062;49.844;8.120;2024-01-16T00:28:22;98673.50;;;13.06;55.06
8039;BME280;4062;49.844;8.120;2024-01-16T00:30:23;98671.75;;;13.05;55.07
8039;BME280;4062;49.844;8.120;2024-01-16T00:32:24;98672.59;;;13.06;55.01
8039;BME280;4062;49.844;8.120;2024-01-16T00:34:25;98673.50;;;13.06;55.02
8039;BME280;4062;49.844;8.120;2024-01-16T00:36:27;98674.34;;;13.07;55.11
8039;BME280;4062;49.844;8.120;2024-01-16T00:38:28;98670.84;;;13.06;55.06
8039;BME280;4062;49.844;8.120;2024-01-16T00:40:29;98663.72;;;13.07;55.00
8039;BME280;4062;49.844;8.120;2024-01-16T00:42:31;98674.34;;;13.07;55.02
8039;BME280;4062;49.844;8.120;2024-01-16T00:44:33;98673.50;;;13.06;55.16
8039;BME280;4062;49.844;8.120;2024-01-16T00:46:34;98671.75;;;13.05;55.15
8039;BME280;4062;49.844;8.120;2024-01-16T00:48:35;98661.16;;;13.05;54.87
8039;BME280;4062;49.844;8.120;2024-01-16T00:50:37;98664.66;;;13.06;54.94
8039;BME280;4062;49.844;8.120;2024-01-16T00:52:38;98666.47;;;13.05;54.85
8039;BME280;4062;49.844;8.120;2024-01-16T00:54:39;98665.56;;;13.05;55.12
8039;BME280;4062;49.844;8.120;2024-01-16T00:56:42;98673.53;;;13.05;55.01
8039;BME280;4062;49.844;8.120;2024-01-16T00:58:44;98669.09;;;13.05;55.09
8039;BME280;4062;49.844;8.120;2024-01-16T01:00:45;98672.59;;;13.06;55.15
8039;BME280;4062;49.844;8.120;2024-01-16T01:02:46;98671.75;;;13.05;55.10
8039;BME280;4062;49.844;8.120;2024-01-16T01:04:48;98672.69;;;13.04;54.97
8039;BME280;4062;49.844;8.120;2024-01-16T01:06:49;98674.41;;;13.05;55.17
8039;BME280;4062;49.844;8.120;2024-01-16T01:08:51;98669.09;;;13.05;55.12
8039;BME280;4062;49.844;8.120;2024-01-16T01:10:52;98681.50;;;13.05;55.08
8039;BME280;4062;49.844;8.120;2024-01-16T01:12:53;98681.50;;;13.05;55.12
8039;BME280;4062;49.844;8.120;2024-01-16T01:14:54;98678.00;;;13.04;55.03
8039;BME280;4062;49.844;8.120;2024-01-16T01:16:56;98682.44;;;13.04;55.13
8039;BME280;4062;49.844;8.120;2024-01-16T01:18:57;98694.81;;;13.03;55.18
8039;BME280;4062;49.844;8.120;2024-01-16T01:20:58;98685.94;;;13.04;55.13
8039;BME280;4062;49.844;8.120;2024-01-16T01:23:00;98691.25;;;13.04;55.17
8039;BME280;4062;49.844;8.120;2024-01-16T01:25:01;98690.41;;;13.04;55.17
8039;BME280;4062;49.844;8.120;2024-01-16T01:27:02;98690.41;;;13.04;55.22
8039;BME280;4062;49.844;8.120;2024-01-16T01:29:04;98695.75;;;13.02;55.14
8039;BME280;4062;49.844;8.120;2024-01-16T01:31:05;98699.28;;;13.03;55.26
8039;BME280;4062;49.844;8.120;2024-01-16T01:33:07;98701.94;;;13.03;55.23
8039;BME280;4062;49.844;8.120;2024-01-16T01:35:08;98697.47;;;13.03;55.18
8039;BME280;4062;49.844;8.120;2024-01-16T01:37:09;98698.41;;;13.02;55.16
8039;BME280;4062;49.844;8.120;2024-01-16T01:39:11;98703.72;;;13.02;55.14
8039;BME280;4062;49.844;8.120;2024-01-16T01:41:12;98702.88;;;13.02;55.15
8039;BME280;4062;49.844;8.120;2024-01-16T01:43:21;98696.69;;;13.01;55.18
8039;BME280;4062;49.844;8.120;2024-01-16T01:45:22;98714.31;;;13.02;55.26
8039;BME280;4062;49.844;8.120;2024-01-16T01:47:24;98714.31;;;13.02;55.22
8039;BME280;4062;49.844;8.120;2024-01-16T01:49:26;98709.94;;;13.01;55.23
8039;BME280;4062;49.844;8.120;2024-01-16T01:51:29;98717.91;;;13.01;55.17
8039;BME280;4062;49.844;8.120;2024-01-16T01:53:31;98710.81;;;13.02;55.30
8039;BME280;4062;49.844;8.120;2024-01-16T01:55:33;98718.78;;;13.02;55.25
8039;BME280;4062;49.844;8.120;2024-01-16T01:57:35;98715.25;;;13.01;55.18
8039;BME280;4062;49.844;8.120;2024-01-16T01:59:36;98714.41;;;13.01;55.20
8039;BME280;4062;49.844;8.120;2024-01-16T02:01:38;98730.22;;;13.02;55.22
8039;BME280;4062;49.844;8.120;2024-01-16T02:03:42;98728.50;;;13.01;55.27
8039;BME280;4062;49.844;8.120;2024-01-16T02:05:44;98732.09;;;13.00;55.19
8039;BME280;4062;49.844;8.120;2024-01-16T02:07:46;98734.72;;;13.00;55.14
8039;BME280;4062;49.844;8.120;2024-01-16T02:09:48;98735.63;;;13.01;55.23
8039;BME280;4062;49.844;8.120;2024-01-16T02:11:50;98729.44;;;13.00;55.19
8039;BME280;4062;49.844;8.120;2024-01-16T02:13:51;98737.38;;;13.00;55.24
8039;BME280;4062;49.844;8.120;2024-01-16T02:15:53;98736.53;;;13.00;55.29
8039;BME280;4062;49.844;8.120;2024-01-16T02:17:54;98737.38;;;13.00;55.26
8039;BME280;4062;49.844;8.120;2024-01-16T02:19:55;98739.13;;;13.01;55.22
8039;BME280;4062;49.844;8.120;2024-01-16T02:22:00;98732.09;;;13.00;55.16
8039;BME280;4062;49.844;8.120;2024-01-16T02:24:02;98727.66;;;13.01;55.10
8039;BME280;4062;49.844;8.120;2024-01-16T02:26:04;98727.66;;;13.01;55.10
8039;BME280;4062;49.844;8.120;2024-01-16T02:28:05;98728.50;;;13.01;55.11
8039;BME280;4062;49.844;8.120;2024-01-16T02:30:07;98724.06;;;13.02;55.01
8039;BME280;4062;49.844;8.120;2024-01-16T02:32:10;98720.53;;;13.01;55.18
8039;BME280;4062;49.844;8.120;2024-01-16T02:34:11;98716.97;;;13.02;55.14
8039;BME280;4062;49.844;8.120;2024-01-16T02:36:12;98709.91;;;13.03;55.07
8039;BME280;4062;49.844;8.120;2024-01-16T02:38:13;98712.53;;;13.03;55.10
8039;BME280;4062;49.844;8.120;2024-01-16T02:40:15;98722.22;;;13.04;55.23
8039;BME280;4062;49.844;8.120;2024-01-16T02:42:17;98720.41;;;13.04;55.18
8039;BME280;4062;49.844;8.120;2024-01-16T02:44:18;98726.56;;;13.05;55.16
8039;BME280;4062;49.844;8.120;2024-01-16T02:46:19;98726.56;;;13.05;55.16
8039;BME280;4062;49.844;8.120;2024-01-16T02:48:20;98716.91;;;13.04;55.17
8039;BME280;4062;49.844;8.120;2024-01-16T02:50:22;98731.88;;;13.05;55.13
8039;BME280;4062;49.844;8.120;2024-01-16T02:52:24;98731.88;;;13.05;55.25
8039;BME280;4062;49.844;8.120;2024-01-16T02:54:25;98734.53;;;13.05;55.25
8039;BME280;4062;49.844;8.120;2024-01-16T02:56:26;98737.19;;;13.05;55.22
8039;BME280;4062;49.844;8.120;2024-01-16T02:58:29;98737.19;;;13.05;55.07
8039;BME280;4062;49.844;8.120;2024-01-16T03:00:30;98737.19;;;13.05;55.09
8039;BME280;4062;49.844;8.120;2024-01-16T03:02:31;98740.72;;;13.05;55.27
8039;BME280;4062;49.844;8.120;2024-01-16T03:04:33;98739.84;;;13.05;54.99
8039;BME280;4062;49.844;8.120;2024-01-16T03:06:34;98746.00;;;13.05;55.10
8039;BME280;4062;49.844;8.120;2024-01-16T03:08:35;98737.19;;;13.05;55.13
8039;BME280;4062;49.844;8.120;2024-01-16T03:10:36;98740.78;;;13.04;55.10
8039;BME280;4062;49.844;8.120;2024-01-16T03:12:38;98745.13;;;13.05;55.12
8039;BME280;4062;49.844;8.120;2024-01-16T03:14:39;98738.97;;;13.04;55.01
8039;BME280;4062;49.844;8.120;2024-01-16T03:16:41;98738.97;;;13.04;55.04
8039;BME280;4062;49.844;8.120;2024-01-16T03:18:42;98738.13;;;13.04;55.03
8039;BME280;4062;49.844;8.120;2024-01-16T03:20:43;98736.34;;;13.04;55.23
8039;BME280;4062;49.844;8.120;2024-01-16T03:22:45;98747.88;;;13.03;55.01
8039;BME280;4062;49.844;8.120;2024-01-16T03:24:46;98739.06;;;13.03;55.14
8039;BME280;4062;49.844;8.120;2024-01-16T03:26:48;98737.25;;;13.03;55.09
8039;BME280;4062;49.844;8.120;2024-01-16T03:28:49;98739.91;;;13.03;55.16
8039;BME280;4062;49.844;8.120;2024-01-16T03:30:50;98744.38;;;13.03;55.17
8039;BME280;4062;49.844;8.120;2024-01-16T03:32:52;98741.72;;;13.03;55.19
8039;BME280;4062;49.844;8.120;2024-01-16T03:34:53;98739.91;;;13.03;55.15
8039;BME280;4062;49.844;8.120;2024-01-16T03:36:54;98741.72;;;13.03;55.07
8039;BME280;4062;49.844;8.120;2024-01-16T03:38:56;98735.53;;;13.02;55.16
8039;BME280;4062;49.844;8.120;2024-01-16T03:40:57;98740.84;;;13.02;55.19
8039;BME280;4062;49.844;8.120;2024-01-16T03:42:58;98748.78;;;13.02;55.15
8039;BME280;4062;49.844;8.120;2024-01-16T03:45:00;98743.50;;;13.02;55.22
8039;BME280;4062;49.844;8.120;2024-01-16T03:47:01;98744.41;;;13.01;55.19
8039;BME280;4062;49.844;8.120;2024-01-16T03:49:02;98747.94;;;13.02;55.21
8039;BME280;4062;49.844;8.120;2024-01-16T03:51:04;98749.72;;;13.01;55.22
8039;BME280;4062;49.844;8.120;2024-01-16T03:53:05;98745.28;;;13.02;55.12
8039;BME280;4062;49.844;8.120;2024-01-16T03:55:07;98749.72;;;13.01;55.24
8039;BME280;4062;49.844;8.120;2024-01-16T03:57:08;98745.28;;;13.02;55.33
8039;BME280;4062;49.844;8.120;2024-01-16T03:59:09;98741.75;;;13.01;55.23
8039;BME280;4062;49.844;8.120;2024-01-16T04:01:11;98740.03;;;13.00;55.32
8039;BME280;4062;49.844;8.120;2024-01-16T04:03:13;98738.25;;;13.01;55.21
8039;BME280;4062;49.844;8.120;2024-01-16T04:05:15;98744.41;;;13.01;55.24
8039;BME280;4062;49.844;8.120;2024-01-16T04:07:16;98744.50;;;13.00;55.24
8039;BME280;4062;49.844;8.120;2024-01-16T04:09:17;98743.56;;;13.01;55.32
8039;BME280;4062;49.844;8.120;2024-01-16T04:11:19;98745.34;;;13.00;55.25
8039;BME280;4062;49.844;8.120;2024-01-16T04:13:20;98748.00;;;13.00;55.41
8039;BME280;4062;49.844;8.120;2024-01-16T04:15:21;98743.56;;;13.01;55.34
8039;BME280;4062;49.844;8.120;2024-01-16T04:17:23;98748.00;;;13.00;55.25
8039;BME280;4062;49.844;8.120;2024-01-16T04:19:24;98742.69;;;13.00;55.17
8039;BME280;4062;49.844;8.120;2024-01-16T04:21:25;98750.66;;;13.00;55.14
8039;BME280;4062;49.844;8.120;2024-01-16T04:23:27;98750.66;;;13.00;55.20
8039;BME280;4062;49.844;8.120;2024-01-16T04:25:28;98748.88;;;13.01;55.23
8039;BME280;4062;49.844;8.120;2024-01-16T04:27:29;98742.69;;;13.00;55.32
8039;BME280;4062;49.844;8.120;2024-01-16T04:29:31;98741.00;;;12.99;55.17
8039;BME280;4062;49.844;8.120;2024-01-16T04:31:39;98735.69;;;12.99;55.12
8039;BME280;4062;49.844;8.120;2024-01-16T04:33:41;98734.81;;;12.98;55.22
8039;BME280;4062;49.844;8.120;2024-01-16T04:35:42;98743.66;;;12.99;55.34
8039;BME280;4062;49.844;8.120;2024-01-16T04:37:45;98735.69;;;12.99;55.21
8039;BME280;4062;49.844;8.120;2024-01-16T04:39:46;98744.50;;;13.00;55.19
8039;BME280;4062;49.844;8.120;2024-01-16T04:41:48;98748.00;;;13.00;55.18
8039;BME280;4062;49.844;8.120;2024-01-16T04:43:49;98748.00;;;13.00;55.11
8039;BME280;4062;49.844;8.120;2024-01-16T04:45:51;98751.53;;;13.01;55.09
8039;BME280;4062;49.844;8.120;2024-01-16T04:47:52;98746.22;;;13.01;55.10
8039;BME280;4062;49.844;8.120;2024-01-16T04:49:53;98754.09;;;13.02;55.17
8039;BME280;4062;49.844;8.120;2024-01-16T04:51:55;98745.28;;;13.02;55.08
8039;BME280;4062;49.844;8.120;2024-01-16T04:53:57;98748.78;;;13.02;55.15
8039;BME280;4062;49.844;8.120;2024-01-16T04:55:58;98752.31;;;13.03;55.18
8039;BME280;4062;49.844;8.120;2024-01-16T04:57:59;98743.44;;;13.04;55.20
8039;BME280;4062;49.844;8.120;2024-01-16T05:00:01;98743.44;;;13.04;55.21
8039;BME280;4062;49.844;8.120;2024-01-16T05:02:03;98740.78;;;13.04;55.11
8039;BME280;4062;49.844;8.120;2024-01-16T05:04:05;98728.38;;;13.04;55.20
8039;BME280;4062;49.844;8.120;2024-01-16T05:06:13;98727.53;;;13.04;55.16
8039;BME280;4062;49.844;8.120;2024-01-16T05:08:17;98730.19;;;13.04;55.24
8039;BME280;4062;49.844;8.120;2024-01-16T05:10:19;98723.06;;;13.04;55.08
8039;BME280;4062;49.844;8.120;2024-01-16T05:12:20;98714.28;;;13.04;55.21
8039;BME280;4062;49.844;8.120;2024-01-16T05:14:23;98711.63;;;13.04;55.14
8039;BME280;4062;49.844;8.120;2024-01-16T05:16:26;98711.63;;;13.04;55.22
8039;BME280;4062;49.844;8.120;2024-01-16T05:18:28;98708.97;;;13.04;55.10
8039;BME280;4062;49.844;8.120;2024-01-16T05:20:29;98710.66;;;13.05;55.16
8039;BME280;4062;49.844;8.120;2024-01-16T05:22:31;98707.16;;;13.04;55.18
8039;BME280;4062;49.844;8.120;2024-01-16T05:24:32;98701.84;;;13.04;55.16
8039;BME280;4062;49.844;8.120;2024-01-16T05:26:34;98699.22;;;13.04;55.08
8039;BME280;4062;49.844;8.120;2024-01-16T05:28:36;98692.19;;;13.03;54.96
8039;BME280;4062;49.844;8.120;2024-01-16T05:30:37;98696.56;;;13.04;55.13
8039;BME280;4062;49.844;8.120;2024-01-16T05:32:38;98700.13;;;13.03;55.12
8039;BME280;4062;49.844;8.120;2024-01-16T05:34:43;98698.38;;;13.04;55.11
8039;BME280;4062;49.844;8.120;2024-01-16T05:36:44;98694.81;;;13.03;55.04
8039;BME280;4062;49.844;8.120;2024-01-16T05:38:45;98695.72;;;13.04;55.09
8039;BME280;4062;49.844;8.120;2024-01-16T05:40:47;98698.38;;;13.04;55.07
8039;BME280;4062;49.844;8.120;2024-01-16T05:42:49;98690.44;;;13.02;55.14
8039;BME280;4062;49.844;8.120;2024-01-16T05:44:51;98695.75;;;13.02;55.14
8039;BME280;4062;49.844;8.120;2024-01-16T05:46:54;98693.97;;;13.03;55.15
8039;BME280;4062;49.844;8.120;2024-01-16T05:48:56;98688.69;;;13.03;55.09
8039;BME280;4062;49.844;8.120;2024-01-16T05:50:57;98699.28;;;13.03;55.09
8039;BME280;4062;49.844;8.120;2024-01-16T05:52:58;98696.63;;;13.03;55.16
8039;BME280;4062;49.844;8.120;2024-01-16T05:55:00;98693.09;;;13.02;55.19
8039;BME280;4062;49.844;8.120;2024-01-16T05:57:01;98692.25;;;13.02;55.17
8039;BME280;4062;49.844;8.120;2024-01-16T05:59:03;98696.69;;;13.01;55.23
8039;BME280;4062;49.844;8.120;2024-01-16T06:01:06;98702.88;;;13.02;55.26
8039;BME280;4062;49.844;8.120;2024-01-16T06:03:07;98702.88;;;13.02;55.05
8039;BME280;4062;49.844;8.120;2024-01-16T06:05:08;98701.97;;;13.01;55.25
8039;BME280;4062;49.844;8.120;2024-01-16T06:07:10;98694.03;;;13.01;55.24
8039;BME280;4062;49.844;8.120;2024-01-16T06:09:11;98697.59;;;13.00;55.32
8039;BME280;4062;49.844;8.120;2024-01-16T06:11:15;98694.03;;;13.01;55.16
8039;BME280;4062;49.844;8.120;2024-01-16T06:13:17;98702.88;;;13.02;55.21
8039;BME280;4062;49.844;8.120;2024-01-16T06:15:19;98689.66;;;13.00;55.21
8039;BME280;4062;49.844;8.120;2024-01-16T06:17:20;98683.50;;;13.00;55.24
8039;BME280;4062;49.844;8.120;2024-01-16T06:19:21;98694.13;;;13.00;55.26
8039;BME280;4062;49.844;8.120;2024-01-16T06:21:23;98693.25;;;12.99;55.23
8039;BME280;4062;49.844;8.120;2024-01-16T06:23:25;98691.47;;;13.00;55.19
8039;BME280;4062;49.844;8.120;2024-01-16T06:25:26;98681.69;;;13.00;55.27
8039;BME280;4062;49.844;8.120;2024-01-16T06:27:27;98689.66;;;13.00;55.25
8039;BME280;4062;49.844;8.120;2024-01-16T06:29:29;98680.00;;;12.99;55.17
8039;BME280;4062;49.844;8.120;2024-01-16T06:31:30;98687.09;;;12.98;55.31
8039;BME280;4062;49.844;8.120;2024-01-16T06:33:31;98684.44;;;12.98;55.26
8039;BME280;4062;49.844;8.120;2024-01-16T06:35:33;98685.31;;;12.99;55.32
8039;BME280;4062;49.844;8.120;2024-01-16T06:37:34;98687.97;;;12.99;55.18
8039;BME280;4062;49.844;8.120;2024-01-16T06:39:36;98684.44;;;12.98;55.11
8039;BME280;4062;49.844;8.120;2024-01-16T06:41:37;98684.44;;;12.98;55.34
8039;BME280;4062;49.844;8.120;2024-01-16T06:43:38;98681.78;;;12.98;55.12
8039;BME280;4062;49.844;8.120;2024-01-16T06:45:40;98678.28;;;12.98;55.16
8039;BME280;4062;49.844;8.120;2024-01-16T06:47:43;98680.94;;;12.98;55.22
8039;BME280;4062;49.844;8.120;2024-01-16T06:49:44;98672.97;;;12.98;55.22
8039;BME280;4062;49.844;8.120;2024-01-16T06:51:46;98678.28;;;12.98;55.13
8039;BME280;4062;49.844;8.120;2024-01-16T06:53:47;98680.94;;;12.98;55.09
8039;BME280;4062;49.844;8.120;2024-01-16T06:55:48;98681.78;;;12.98;55.04
8039;BME280;4062;49.844;8.120;2024-01-16T06:57:50;98682.66;;;12.99;55.10
8039;BME280;4062;49.844;8.120;2024-01-16T06:59:51;98682.66;;;12.99;55.19
8039;BME280;4062;49.844;8.120;2024-01-16T07:01:52;98679.03;;;13.00;55.07
8039;BME280;4062;49.844;8.120;2024-01-16T07:03:55;98680.84;;;13.00;55.09
8039;BME280;4062;49.844;8.120;2024-01-16T07:05:57;98682.56;;;13.01;55.09
8039;BME280;4062;49.844;8.120;2024-01-16T07:07:58;98683.44;;;13.01;55.18
8039;BME280;4062;49.844;8.120;2024-01-16T07:09:59;98684.31;;;13.02;55.12
8039;BME280;4062;49.844;8.120;2024-01-16T07:12:01;98681.66;;;13.02;55.16
8039;BME280;4062;49.844;8.120;2024-01-16T07:14:06;98682.50;;;13.02;55.12
8039;BME280;4062;49.844;8.120;2024-01-16T07:16:11;98678.91;;;13.03;55.10
8039;BME280;4062;49.844;8.120;2024-01-16T07:18:12;98679.78;;;13.04;55.22
8039;BME280;4062;49.844;8.120;2024-01-16T07:20:14;98678.91;;;13.03;55.19
8039;BME280;4062;49.844;8.120;2024-01-16T07:22:15;98686.88;;;13.03;55.05
8039;BME280;4062;49.844;8.120;2024-01-16T07:24:17;98686.88;;;13.03;55.07
8039;BME280;4062;49.844;8.120;2024-01-16T07:26:18;98697.47;;;13.03;55.10
8039;BME280;4062;49.844;8.120;2024-01-16T07:28:19;98700.13;;;13.03;55.28
8039;BME280;4062;49.844;8.120;2024-01-16T07:30:23;98706.31;;;13.04;55.20
8039;BME280;4062;49.844;8.120;2024-01-16T07:32:24;98699.22;;;13.04;55.13
8039;BME280;4062;49.844;8.120;2024-01-16T07:34:26;98701.84;;;13.04;55.14
8039;BME280;4062;49.844;8.120;2024-01-16T07:36:27;98695.72;;;13.04;55.25
8039;BME280;4062;49.844;8.120;2024-01-16T07:38:29;98695.72;;;13.04;55.02
8039;BME280;4062;49.844;8.120;2024-01-16T07:40:30;98693.97;;;13.03;55.16
8039;BME280;4062;49.844;8.120;2024-01-16T07:42:32;98700.13;;;13.03;54.98
8039;BME280;4062;49.844;8.120;2024-01-16T07:44:35;98694.81;;;13.03;54.91
8039;BME280;4062;49.844;8.120;2024-01-16T07:46:36;98694.81;;;13.03;54.98
8039;BME280;4062;49.844;8.120;2024-01-16T07:48:38;98695.72;;;13.04;55.07
8039;BME280;4062;49.844;8.120;2024-01-16T07:50:40;98689.53;;;13.03;55.11
8039;BME280;4062;49.844;8.120;2024-01-16T07:52:41;98694.81;;;13.03;55.05
8039;BME280;4062;49.844;8.120;2024-01-16T07:54:43;98698.41;;;13.02;55.10
8039;BME280;4062;49.844;8.120;2024-01-16T07:56:44;98698.38;;;13.04;54.93
8039;BME280;4062;49.844;8.120;2024-01-16T07:58:46;98701.94;;;13.03;54.97
8039;BME280;4062;49.844;8.120;2024-01-16T08:00:47;98699.28;;;13.03;55.16
8039;BME280;4062;49.844;8.120;2024-01-16T08:02:49;98701.06;;;13.02;54.98
8039;BME280;4062;49.844;8.120;2024-01-16T08:04:50;98700.22;;;13.02;55.08
8039;BME280;4062;49.844;8.120;2024-01-16T08:06:53;98709.00;;;13.02;55.15
8039;BME280;4062;49.844;8.120;2024-01-16T08:08:54;98708.16;;;13.02;55.13
8039;BME280;4062;49.844;8.120;2024-01-16T08:10:55;98705.44;;;13.03;55.00
8039;BME280;4062;49.844;8.120;2024-01-16T08:12:57;98705.53;;;13.02;54.99
8039;BME280;4062;49.844;8.120;2024-01-16T08:14:59;98712.59;;;13.01;55.19
8039;BME280;4062;49.844;8.120;2024-01-16T08:17:00;98718.78;;;13.02;55.13
8039;BME280;4062;49.844;8.120;2024-01-16T08:19:03;98719.63;;;13.02;55.11
8039;BME280;4062;49.844;8.120;2024-01-16T08:21:06;98729.38;;;13.02;55.13
8039;BME280;4062;49.844;8.120;2024-01-16T08:23:08;98728.50;;;13.01;55.13
8039;BME280;4062;49.844;8.120;2024-01-16T08:25:11;98728.50;;;13.01;55.22
8039;BME280;4062;49.844;8.120;2024-01-16T08:27:12;98726.72;;;13.02;55.17
8039;BME280;4062;49.844;8.120;2024-01-16T08:29:14;98730.31;;;13.01;55.11
8039;BME280;4062;49.844;8.120;2024-01-16T08:31:17;98738.25;;;13.01;55.24
8039;BME280;4062;49.844;8.120;2024-01-16T08:33:22;98741.75;;;13.01;55.16
8039;BME280;4062;49.844;8.120;2024-01-16T08:35:23;98735.63;;;13.01;55.23
8039;BME280;4062;49.844;8.120;2024-01-16T08:37:25;98742.69;;;13.00;55.18
8039;BME280;4062;49.844;8.120;2024-01-16T08:39:26;98743.56;;;13.01;55.19
8039;BME280;4062;49.844;8.120;2024-01-16T08:41:29;98747.06;;;13.01;55.22
8039;BME280;4062;49.844;8.120;2024-01-16T08:43:30;98745.34;;;13.00;55.16
8039;BME280;4062;49.844;8.120;2024-01-16T08:45:31;98744.41;;;13.01;55.09
8039;BME280;4062;49.844;8.120;2024-01-16T08:47:33;98741.84;;;13.00;55.20
8039;BME280;4062;49.844;8.120;2024-01-16T08:49:34;98741.75;;;13.01;55.27
8039;BME280;4062;49.844;8.120;2024-01-16T08:51:36;98744.50;;;13.00;55.21
8039;BME280;4062;49.844;8.120;2024-01-16T08:53:38;98750.66;;;13.00;55.21
8039;BME280;4062;49.844;8.120;2024-01-16T08:55:40;98741.84;;;13.00;55.27
8039;BME280;4062;49.844;8.120;2024-01-16T08:57:41;98741.84;;;13.00;55.21
8039;BME280;4062;49.844;8.120;2024-01-16T08:59:42;98748.00;;;13.00;55.21
8039;BME280;4062;49.844;8.120;2024-01-16T09:01:44;98747.16;;;13.00;55.12
8039;BME280;4062;49.844;8.120;2024-01-16T09:03:46;98742.69;;;13.00;55.21
8039;BME280;4062;49.844;8.120;2024-01-16T09:05:48;98744.50;;;13.00;55.07
8039;BME280;4062;49.844;8.120;2024-01-16T09:07:50;98745.34;;;13.00;55.16
8039;BME280;4062;49.844;8.120;2024-01-16T09:09:52;98750.66;;;13.00;55.17
8039;BME280;4062;49.844;8.120;2024-01-16T09:11:53;98750.66;;;13.00;55.13
8039;BME280;4062;49.844;8.120;2024-01-16T09:13:55;98755.03;;;13.01;55.16
8039;BME280;4062;49.844;8.120;2024-01-16T09:15:56;98747.06;;;13.01;54.93
8039;BME280;4062;49.844;8.120;2024-01-16T09:17:57;98751.44;;;13.02;55.09
8039;BME280;4062;49.844;8.120;2024-01-16T09:19:59;98748.78;;;13.02;55.16
8039;BME280;4062;49.844;8.120;2024-01-16T09:22:00;98750.53;;;13.03;55.24
8039;BME280;4062;49.844;8.120;2024-01-16T09:24:01;98750.53;;;13.03;55.14
8039;BME280;4062;49.844;8.120;2024-01-16T09:26:03;98747.88;;;13.03;55.16
8039;BME280;4062;49.844;8.120;2024-01-16T09:28:05;98746.09;;;13.04;55.05
8039;BME280;4062;49.844;8.120;2024-01-16T09:30:08;98747.88;;;13.03;55.14
8039;BME280;4062;49.844;8.120;2024-01-16T09:32:10;98755.75;;;13.05;55.13
8039;BME280;4062;49.844;8.120;2024-01-16T09:34:11;98752.25;;;13.04;55.21
8039;BME280;4062;49.844;8.120;2024-01-16T09:36:14;98746.94;;;13.04;55.16
8039;BME280;4062;49.844;8.120;2024-01-16T09:38:17;98745.13;;;13.05;55.22
8039;BME280;4062;49.844;8.120;2024-01-16T09:40:18;98758.41;;;13.05;55.06
8039;BME280;4062;49.844;8.120;2024-01-16T09:42:19;98761.03;;;13.05;55.17
8039;BME280;4062;49.844;8.120;2024-01-16T09:44:21;98757.47;;;13.06;54.99
8039;BME280;4062;49.844;8.120;2024-01-16T09:46:23;98757.34;;;13.09;54.66
8039;BME280;4062;49.844;8.120;2024-01-16T09:48:28;98753.88;;;13.07;52.61
8039;BME280;4062;49.844;8.120;2024-01-16T09:50:31;98746.94;;;13.04;51.89
8039;BME280;4062;49.844;8.120;2024-01-16T09:52:33;98751.53;;;13.01;51.96
8039;BME280;4062;49.844;8.120;2024-01-16T09:54:34;98760.41;;;13.00;51.79
8039;BME280;4062;49.844;8.120;2024-01-16T09:56:43;98771.81;;;13.02;52.87
8039;BME280;4062;49.844;8.120;2024-01-16T09:58:45;98767.31;;;13.04;52.15
8039;BME280;4062;49.844;8.120;2024-01-16T10:00:50;98761.13;;;13.03;52.23
8039;BME280;4062;49.844;8.120;2024-01-16T10:02:53;98756.69;;;13.04;52.36
8039;BME280;4062;49.844;8.120;2024-01-16T10:05:00;98762.00;;;13.04;52.67
8039;BME280;4062;49.844;8.120;2024-01-16T10:07:02;98761.13;;;13.03;52.72
8039;BME280;4062;49.844;8.120;2024-01-16T10:09:05;98759.34;;;13.04;52.82
8039;BME280;4062;49.844;8.120;2024-01-16T10:11:07;98762.00;;;13.04;53.04
8039;BME280;4062;49.844;8.120;2024-01-16T10:13:09;98763.78;;;13.03;53.21
8039;BME280;4062;49.844;8.120;2024-01-16T10:15:14;98772.63;;;13.04;53.29
8039;BME280;4062;49.844;8.120;2024-01-16T10:17:17;98770.88;;;13.03;53.37
8039;BME280;4062;49.844;8.120;2024-01-16T10:19:19;98769.06;;;13.03;53.58
8039;BME280;4062;49.844;8.120;2024-01-16T10:21:21;98769.06;;;13.03;53.48
8039;BME280;4062;49.844;8.120;2024-01-16T10:23:27;98759.41;;;13.02;53.45
8039;BME280;4062;49.844;8.120;2024-01-16T10:25:29;98756.75;;;13.02;53.55
8039;BME280;4062;49.844;8.120;2024-01-16T10:27:30;98745.28;;;13.02;53.71
8039;BME280;4062;49.844;8.120;2024-01-16T10:29:32;98743.50;;;13.02;53.69
8039;BME280;4062;49.844;8.120;2024-01-16T10:31:34;98739.13;;;13.01;53.74
8039;BME280;4062;49.844;8.120;2024-01-16T10:33:35;98746.13;;;13.02;53.79
8039;BME280;4062;49.844;8.120;2024-01-16T10:35:40;98752.31;;;13.03;53.81
8039;BME280;4062;49.844;8.120;2024-01-16T10:37:52;98746.13;;;13.02;53.89
8039;BME280;4062;49.844;8.120;2024-01-16T10:39:54;98747.06;;;13.01;53.79
8039;BME280;4062;49.844;8.120;2024-01-16T10:41:57;98747.06;;;13.01;53.93
8039;BME280;4062;49.844;8.120;2024-01-16T10:44:08;98746.22;;;13.01;53.96
8039;BME280;4062;49.844;8.120;2024-01-16T10:46:13;98742.63;;;13.02;54.17
8039;BME280;4062;49.844;8.120;2024-01-16T10:48:15;98741.75;;;13.01;54.16
8039;BME280;4062;49.844;8.120;2024-01-16T10:50:17;98733.81;;;13.01;53.97
8039;BME280;4062;49.844;8.120;2024-01-16T10:52:18;98728.50;;;13.01;54.07
8039;BME280;4062;49.844;8.120;2024-01-16T10:54:21;98724.13;;;13.00;54.04
8039;BME280;4062;49.844;8.120;2024-01-16T10:56:23;98721.47;;;13.00;54.29
8039;BME280;4062;49.844;8.120;2024-01-16T10:58:25;98717.91;;;13.01;54.15
8039;BME280;4062;49.844;8.120;2024-01-16T11:00:27;98711.75;;;13.01;54.13
8039;BME280;4062;49.844;8.120;2024-01-16T11:02:35;98703.78;;;13.01;54.17
8039;BME280;4062;49.844;8.120;2024-01-16T11:04:39;98706.44;;;13.01;54.10